createdAt,value
2018-01-24T00:01:38.839Z,51.81
2018-01-24T00:04:05.054Z,51.81
2018-01-24T00:06:31.485Z,51.84
2018-01-24T00:08:59.842Z,51.82
2018-01-24T00:11:26.280Z,51.95
2018-01-24T00:13:52.547Z,51.71
2018-01-24T00:16:18.858Z,51.71
2018-01-24T00:18:45.148Z,51.98
2018-01-24T00:21:11.405Z,51.94
2018-01-24T00:23:37.672Z,51.87
2018-01-24T00:26:03.856Z,52.00
2018-01-24T00:28:30.318Z,51.94
2018-01-24T00:30:56.606Z,51.92
2018-01-24T00:33:22.807Z,51.93
2018-01-24T00:35:49.016Z,51.96
2018-01-24T00:38:15.365Z,51.99
2018-01-24T00:40:41.546Z,51.95
2018-01-24T00:43:07.804Z,51.95
2018-01-24T00:45:34.065Z,52.04
2018-01-24T00:48:00.262Z,52.03
2018-01-24T00:50:26.449Z,52.07
2018-01-24T00:52:52.709Z,52.15
2018-01-24T00:55:18.922Z,51.98
2018-01-24T00:57:45.169Z,51.97
2018-01-24T01:00:11.694Z,51.99
2018-01-24T01:02:37.935Z,52.03
2018-01-24T01:05:04.153Z,51.99
2018-01-24T01:07:30.416Z,52.01
2018-01-24T01:09:56.660Z,52.00
2018-01-24T01:12:22.917Z,51.97
2018-01-24T01:14:49.460Z,52.00
2018-01-24T01:17:15.698Z,51.99
2018-01-24T01:19:41.937Z,51.99
2018-01-24T01:22:08.226Z,52.01
2018-01-24T01:24:34.454Z,52.11
2018-01-24T01:27:00.661Z,52.22
2018-01-24T01:29:26.916Z,52.33
2018-01-24T01:31:53.142Z,52.49
2018-01-24T01:34:19.779Z,52.55
2018-01-24T01:36:46.006Z,52.60
2018-01-24T01:39:12.250Z,52.67
2018-01-24T01:41:38.462Z,52.83
2018-01-24T01:44:04.711Z,52.87
2018-01-24T01:46:31.019Z,52.96
2018-01-24T01:48:57.282Z,53.43
2018-01-24T01:51:23.591Z,53.43
2018-01-24T01:53:49.827Z,53.51
2018-01-24T01:56:16.071Z,53.71
2018-01-24T01:58:42.286Z,53.56
2018-01-24T02:01:08.548Z,53.50
2018-01-24T02:03:34.796Z,53.47
2018-01-24T02:06:01.011Z,53.39
2018-01-24T02:08:27.269Z,53.38
2018-01-24T02:10:53.812Z,53.43
2018-01-24T02:13:20.057Z,53.38
2018-01-24T02:15:46.333Z,53.41
2018-01-24T02:18:13.122Z,53.36
2018-01-24T02:20:39.317Z,53.44
2018-01-24T02:23:05.557Z,53.45
2018-01-24T02:25:31.861Z,53.37
2018-01-24T02:27:58.058Z,53.41
2018-01-24T02:30:24.307Z,53.41
2018-01-24T02:32:50.554Z,53.41
2018-01-24T02:35:17.052Z,53.38
2018-01-24T02:37:43.326Z,53.50
2018-01-24T02:40:09.530Z,53.59
2018-01-24T02:42:35.750Z,53.78
2018-01-24T02:45:02.327Z,53.77
2018-01-24T02:47:28.803Z,53.82
2018-01-24T02:49:55.349Z,53.90
2018-01-24T02:52:21.596Z,53.94
2018-01-24T02:54:47.800Z,54.02
2018-01-24T02:57:14.327Z,54.07
2018-01-24T02:59:40.605Z,54.18
2018-01-24T03:02:06.786Z,54.31
2018-01-24T03:04:32.978Z,54.36
2018-01-24T03:06:59.244Z,54.33
2018-01-24T03:09:25.456Z,54.33
2018-01-24T03:11:51.640Z,54.39
2018-01-24T03:14:18.238Z,54.39
2018-01-24T03:16:44.446Z,54.46
2018-01-24T03:19:10.914Z,54.50
2018-01-24T03:21:37.501Z,54.46
2018-01-24T03:24:03.717Z,54.54
2018-01-24T03:26:29.958Z,54.64
2018-01-24T03:28:56.522Z,54.63
2018-01-24T03:31:22.750Z,54.78
2018-01-24T03:33:48.960Z,54.73
2018-01-24T03:36:15.495Z,54.62
2018-01-24T03:38:41.729Z,54.56
2018-01-24T03:41:07.950Z,54.47
2018-01-24T03:43:34.218Z,54.45
2018-01-24T03:46:00.443Z,54.40
2018-01-24T03:48:26.649Z,54.63
2018-01-24T03:50:53.501Z,54.67
2018-01-24T03:53:19.738Z,54.64
2018-01-24T03:55:45.947Z,54.65
2018-01-24T03:58:12.201Z,54.66
2018-01-24T04:00:38.399Z,54.63
2018-01-24T04:03:04.626Z,54.64
2018-01-24T04:05:30.897Z,54.60
2018-01-24T04:07:57.207Z,54.58
2018-01-24T04:10:23.434Z,54.92
2018-01-24T04:12:49.970Z,54.84
2018-01-24T04:15:16.249Z,54.71
2018-01-24T04:17:42.462Z,54.64
2018-01-24T04:20:08.774Z,54.59
2018-01-24T04:22:35.020Z,54.59
2018-01-24T04:25:01.214Z,54.51
2018-01-24T04:27:27.744Z,54.47
2018-01-24T04:29:54.586Z,54.53
2018-01-24T04:32:20.837Z,54.50
2018-01-24T04:34:47.066Z,54.45
2018-01-24T04:37:13.326Z,54.53
2018-01-24T04:39:39.546Z,54.61
2018-01-24T04:42:05.762Z,54.57
2018-01-24T04:44:32.055Z,54.53
2018-01-24T04:46:58.249Z,54.48
2018-01-24T04:49:24.673Z,54.44
2018-01-24T04:51:51.668Z,54.47
2018-01-24T04:54:17.917Z,54.41
2018-01-24T04:56:44.152Z,54.52
2018-01-24T04:59:10.448Z,54.56
2018-01-24T05:01:36.709Z,54.63
2018-01-24T05:04:03.011Z,54.52
2018-01-24T05:06:29.641Z,54.46
2018-01-24T05:08:56.191Z,54.42
2018-01-24T05:11:22.413Z,54.46
2018-01-24T05:13:49.049Z,54.62
2018-01-24T05:16:15.306Z,54.68
2018-01-24T05:18:41.814Z,54.65
2018-01-24T05:21:09.187Z,54.60
2018-01-24T05:23:35.706Z,54.58
2018-01-24T05:26:02.237Z,54.50
2018-01-24T05:28:28.483Z,54.46
2018-01-24T05:30:54.733Z,54.74
2018-01-24T05:33:21.059Z,54.67
2018-01-24T05:35:47.262Z,54.75
2018-01-24T05:38:13.478Z,54.59
2018-01-24T05:40:39.729Z,54.64
2018-01-24T05:43:05.947Z,54.25
2018-01-24T05:45:32.206Z,54.60
2018-01-24T05:47:58.826Z,53.99
2018-01-24T05:50:25.072Z,53.66
2018-01-24T05:52:51.311Z,53.54
2018-01-24T05:55:17.565Z,53.47
2018-01-24T05:57:43.788Z,53.47
2018-01-24T06:00:10.130Z,53.41
2018-01-24T06:02:36.393Z,53.40
2018-01-24T06:05:02.623Z,53.35
2018-01-24T06:07:28.832Z,53.32
2018-01-24T06:09:55.118Z,53.23
2018-01-24T06:12:21.356Z,53.18
2018-01-24T06:14:47.571Z,53.16
2018-01-24T06:17:13.821Z,53.13
2018-01-24T06:19:40.011Z,53.07
2018-01-24T06:22:06.531Z,53.09
2018-01-24T06:24:32.779Z,53.07
2018-01-24T06:26:59.072Z,53.06
2018-01-24T06:29:25.348Z,53.02
2018-01-24T06:31:51.831Z,53.03
2018-01-24T06:34:18.373Z,53.28
2018-01-24T06:36:44.811Z,54.49
2018-01-24T06:39:11.124Z,53.87
2018-01-24T06:41:37.302Z,53.63
2018-01-24T06:44:03.521Z,53.91
2018-01-24T06:46:30.104Z,54.03
2018-01-24T06:48:56.311Z,54.09
2018-01-24T06:51:22.504Z,54.13
2018-01-24T06:53:48.803Z,54.16
2018-01-24T06:56:15.341Z,54.14
2018-01-24T06:58:41.553Z,54.24
2018-01-24T07:01:07.856Z,54.22
2018-01-24T07:03:34.181Z,54.13
2018-01-24T07:06:00.372Z,54.04
2018-01-24T07:08:26.896Z,54.01
2018-01-24T07:10:53.356Z,53.95
2018-01-24T07:13:32.343Z,53.95
2018-01-24T07:15:58.576Z,54.11
2018-01-24T07:18:24.869Z,54.06
2018-01-24T07:20:51.172Z,54.05
2018-01-24T07:23:17.458Z,54.14
2018-01-24T07:25:43.768Z,53.75
2018-01-24T07:28:10.009Z,53.42
2018-01-24T07:30:36.463Z,53.31
2018-01-24T07:33:02.687Z,53.24
2018-01-24T07:35:28.964Z,53.22
2018-01-24T07:37:55.522Z,53.20
2018-01-24T07:40:21.990Z,53.16
2018-01-24T07:42:48.193Z,53.12
2018-01-24T07:45:14.754Z,53.10
2018-01-24T07:47:40.956Z,53.05
2018-01-24T07:50:07.559Z,53.01
2018-01-24T07:52:33.792Z,52.98
2018-01-24T07:55:00.054Z,52.98
2018-01-24T07:57:26.587Z,52.94
2018-01-24T07:59:52.815Z,52.86
2018-01-24T08:02:19.060Z,52.83
2018-01-24T08:04:45.399Z,52.76
2018-01-24T08:07:11.936Z,52.73
2018-01-24T08:09:38.406Z,52.65
2018-01-24T08:12:04.700Z,52.59
2018-01-24T08:14:30.942Z,52.54
2018-01-24T08:16:57.173Z,52.48
2018-01-24T08:19:23.730Z,52.39
2018-01-24T08:21:49.989Z,52.35
2018-01-24T08:24:16.246Z,52.35
2018-01-24T08:26:42.491Z,52.37
2018-01-24T08:29:08.698Z,52.40
2018-01-24T08:31:34.957Z,52.39
2018-01-24T08:34:01.169Z,52.34
2018-01-24T08:36:27.483Z,52.33
2018-01-24T08:38:54.133Z,52.30
2018-01-24T08:41:20.867Z,52.28
2018-01-24T08:43:47.076Z,52.29
2018-01-24T08:46:13.296Z,52.25
2018-01-24T08:48:39.587Z,52.25
2018-01-24T08:51:05.844Z,52.22
2018-01-24T08:53:32.065Z,52.23
2018-01-24T08:55:58.325Z,52.15
2018-01-24T08:58:24.557Z,52.10
2018-01-24T09:00:50.824Z,52.08
2018-01-24T09:03:17.462Z,52.03
2018-01-24T09:05:43.677Z,52.02
2018-01-24T09:08:09.867Z,52.00
2018-01-24T09:10:36.117Z,51.95
2018-01-24T09:13:02.578Z,51.94
2018-01-24T09:15:28.883Z,51.96
2018-01-24T09:17:55.128Z,51.93
2018-01-24T09:20:27.322Z,51.90
2018-01-24T09:22:53.609Z,51.92
2018-01-24T09:25:19.900Z,51.92
2018-01-24T09:27:46.103Z,51.91
2018-01-24T09:30:12.436Z,51.93
2018-01-24T09:32:38.882Z,51.92
2018-01-24T09:35:05.125Z,51.88
2018-01-24T09:37:31.454Z,51.85
2018-01-24T09:39:57.639Z,51.80
2018-01-24T09:42:23.872Z,51.79
2018-01-24T09:44:50.147Z,51.78
2018-01-24T09:47:16.613Z,51.75
2018-01-24T09:49:43.059Z,51.74
2018-01-24T09:52:09.637Z,51.71
2018-01-24T09:54:35.869Z,51.70
2018-01-24T09:57:02.085Z,51.66
2018-01-24T09:59:28.615Z,51.67
2018-01-24T10:01:55.150Z,51.67
2018-01-24T10:04:21.365Z,51.70
2018-01-24T10:06:47.863Z,51.69
2018-01-24T10:09:14.393Z,51.61
2018-01-24T10:11:40.618Z,51.54
2018-01-24T10:14:06.840Z,51.53
2018-01-24T10:16:33.143Z,51.55
2018-01-24T10:18:59.358Z,51.55
2018-01-24T10:21:25.576Z,51.57
2018-01-24T10:23:51.856Z,51.57
2018-01-24T10:26:18.118Z,51.52
2018-01-24T10:28:44.360Z,51.50
2018-01-24T10:31:10.636Z,51.36
2018-01-24T10:33:36.854Z,51.28
2018-01-24T10:36:03.120Z,51.17
2018-01-24T10:38:29.657Z,51.14
2018-01-24T10:40:55.890Z,51.16
2018-01-24T10:43:22.144Z,51.15
2018-01-24T10:45:48.460Z,51.15
2018-01-24T10:48:14.701Z,51.06
2018-01-24T10:50:40.916Z,50.90
2018-01-24T10:53:07.189Z,50.83
2018-01-24T10:55:33.420Z,50.86
2018-01-24T10:57:59.699Z,50.91
2018-01-24T11:00:26.015Z,50.95
2018-01-24T11:02:52.245Z,50.95
2018-01-24T11:05:18.469Z,50.94
2018-01-24T11:07:45.048Z,50.98
2018-01-24T11:10:11.278Z,51.05
2018-01-24T11:12:37.532Z,51.20
2018-01-24T11:15:04.088Z,51.33
2018-01-24T11:17:30.338Z,51.40
2018-01-24T11:19:56.665Z,51.50
2018-01-24T11:22:22.933Z,51.53
2018-01-24T11:24:49.146Z,51.53
2018-01-24T11:27:15.435Z,51.60
2018-01-24T11:29:41.714Z,51.65
2018-01-24T11:32:08.326Z,51.62
2018-01-24T11:34:34.553Z,51.56
2018-01-24T11:37:00.783Z,51.58
2018-01-24T11:39:27.078Z,51.56
2018-01-24T11:41:53.310Z,51.53
2018-01-24T11:44:19.534Z,51.55
2018-01-24T11:46:46.127Z,51.33
2018-01-24T11:49:12.337Z,51.16
2018-01-24T11:51:38.524Z,51.08
2018-01-24T11:54:05.153Z,51.08
2018-01-24T11:56:31.505Z,51.07
2018-01-24T11:58:57.959Z,51.09
2018-01-24T12:01:24.313Z,51.20
2018-01-24T12:03:50.910Z,52.06
2018-01-24T12:06:17.131Z,52.49
2018-01-24T12:08:43.429Z,52.54
2018-01-24T12:11:09.677Z,52.53
2018-01-24T12:13:35.914Z,52.39
2018-01-24T12:16:02.134Z,52.27
2018-01-24T12:18:28.371Z,52.26
2018-01-24T12:20:54.922Z,52.29
2018-01-24T12:23:21.156Z,52.27
2018-01-24T12:25:47.394Z,52.30
2018-01-24T12:28:13.727Z,52.25
2018-01-24T12:30:39.921Z,52.24
2018-01-24T12:33:06.131Z,52.22
2018-01-24T12:35:32.421Z,52.23
2018-01-24T12:37:58.653Z,52.24
2018-01-24T12:40:24.847Z,52.24
2018-01-24T12:42:51.133Z,52.08
2018-01-24T12:45:17.446Z,51.96
2018-01-24T12:47:43.936Z,51.85
2018-01-24T12:50:10.191Z,51.79
2018-01-24T12:52:36.377Z,51.81
2018-01-24T12:55:02.587Z,51.80
2018-01-24T12:57:28.812Z,51.84
2018-01-24T12:59:55.064Z,51.86
2018-01-24T13:02:21.330Z,51.93
2018-01-24T13:04:47.520Z,51.92
2018-01-24T13:07:13.742Z,51.79
2018-01-24T13:09:40.360Z,51.53
2018-01-24T13:12:06.590Z,51.46
2018-01-24T13:14:32.801Z,51.46
2018-01-24T13:16:59.075Z,51.48
2018-01-24T13:19:25.285Z,51.47
2018-01-24T13:21:51.521Z,51.47
2018-01-24T13:24:17.770Z,51.46
2018-01-24T13:26:43.978Z,51.52
2018-01-24T13:29:10.227Z,51.45
2018-01-24T13:31:36.541Z,51.43
2018-01-24T13:34:02.788Z,51.41
2018-01-24T13:36:29.104Z,51.40
2018-01-24T13:38:55.350Z,51.43
2018-01-24T13:41:21.593Z,51.40
2018-01-24T13:43:47.935Z,51.36
2018-01-24T13:46:14.180Z,51.37
2018-01-24T13:48:40.425Z,51.39
2018-01-24T13:51:06.720Z,51.38
2018-01-24T13:53:32.934Z,51.39
2018-01-24T13:55:59.156Z,51.41
2018-01-24T13:58:25.686Z,51.41
2018-01-24T14:00:51.914Z,51.42
2018-01-24T14:03:18.149Z,51.41
2018-01-24T14:05:44.788Z,51.40
2018-01-24T14:08:11.367Z,51.41
2018-01-24T14:10:37.910Z,51.45
2018-01-24T14:13:04.509Z,51.50
2018-01-24T14:15:31.005Z,51.49
2018-01-24T14:17:57.220Z,51.48
2018-01-24T14:20:23.540Z,51.44
2018-01-24T14:22:49.768Z,51.43
2018-01-24T14:25:16.012Z,51.44
2018-01-24T14:27:42.310Z,51.38
2018-01-24T14:30:08.553Z,51.43
2018-01-24T14:32:34.813Z,51.46
2018-01-24T14:35:01.067Z,51.46
2018-01-24T14:37:27.269Z,51.47
2018-01-24T14:39:53.736Z,51.48
2018-01-24T14:42:20.049Z,51.49
2018-01-24T14:44:46.309Z,51.48
2018-01-24T14:47:12.533Z,51.48
2018-01-24T14:49:38.764Z,51.49
2018-01-24T14:52:05.057Z,51.48
2018-01-24T14:54:31.332Z,51.46
2018-01-24T14:56:57.572Z,51.42
2018-01-24T14:59:23.832Z,51.40
2018-01-24T15:01:50.066Z,51.39
2018-01-24T15:04:16.311Z,51.64
2018-01-24T15:06:42.581Z,51.75
2018-01-24T15:09:15.897Z,51.80
2018-01-24T15:11:42.189Z,51.79
2018-01-24T15:14:08.403Z,51.82
2018-01-24T15:16:34.616Z,51.88
2018-01-24T15:19:00.871Z,51.89
2018-01-24T15:21:27.112Z,51.85
2018-01-24T15:23:53.318Z,51.89
2018-01-24T15:26:19.624Z,51.95
2018-01-24T15:28:45.844Z,51.99
2018-01-24T15:31:12.345Z,52.03
2018-01-24T15:33:38.917Z,52.02
2018-01-24T15:36:05.137Z,51.96
2018-01-24T15:38:31.343Z,51.82
2018-01-24T15:40:57.977Z,51.80
2018-01-24T15:43:24.347Z,51.82
2018-01-24T15:45:50.601Z,51.88
2018-01-24T15:48:16.877Z,51.87
2018-01-24T15:50:43.084Z,51.85
2018-01-24T15:53:09.312Z,51.84
2018-01-24T15:55:35.849Z,51.85
2018-01-24T15:58:02.060Z,51.85
2018-01-24T16:00:28.549Z,51.81
2018-01-24T16:02:55.143Z,51.83
2018-01-24T16:05:21.732Z,51.85
2018-01-24T16:07:48.011Z,51.85
2018-01-24T16:10:14.657Z,51.82
2018-01-24T16:12:41.109Z,51.84
2018-01-24T16:15:07.324Z,51.84
2018-01-24T16:17:33.873Z,51.82
2018-01-24T16:20:00.557Z,51.86
2018-01-24T16:22:26.772Z,51.87
2018-01-24T16:24:53.060Z,51.85
2018-01-24T16:27:19.318Z,51.82
2018-01-24T16:29:45.828Z,51.82
2018-01-24T16:32:12.154Z,51.82
2018-01-24T16:34:38.423Z,51.79
2018-01-24T16:37:04.661Z,51.77
2018-01-24T16:39:30.909Z,51.76
2018-01-24T16:41:57.148Z,51.72
2018-01-24T16:44:23.716Z,51.70
2018-01-24T16:46:49.921Z,51.67
2018-01-24T16:49:16.138Z,51.67
2018-01-24T16:51:42.381Z,51.65
2018-01-24T16:54:08.584Z,51.64
2018-01-24T16:56:35.048Z,51.62
2018-01-24T16:59:01.249Z,51.61
2018-01-24T17:01:27.743Z,51.60
2018-01-24T17:03:54.019Z,51.65
2018-01-24T17:06:20.250Z,51.64
2018-01-24T17:08:46.714Z,51.58
2018-01-24T17:11:13.265Z,51.57
2018-01-24T17:13:39.486Z,51.57
2018-01-24T17:16:05.724Z,51.60
2018-01-24T17:18:32.254Z,51.57
2018-01-24T17:20:58.450Z,51.56
2018-01-24T17:23:24.688Z,51.57
2018-01-24T17:25:51.657Z,51.58
2018-01-24T17:28:17.876Z,51.57
2018-01-24T17:30:44.124Z,51.58
2018-01-24T17:33:10.648Z,51.60
2018-01-24T17:35:36.882Z,51.59
2018-01-24T17:38:03.161Z,51.58
2018-01-24T17:40:29.628Z,51.59
2018-01-24T17:42:56.176Z,51.60
2018-01-24T17:45:22.420Z,51.59
2018-01-24T17:47:48.618Z,51.58
2018-01-24T17:50:14.820Z,51.59
2018-01-24T17:52:41.465Z,51.60
2018-01-24T17:55:08.029Z,51.59
2018-01-24T17:57:34.565Z,51.59
2018-01-24T18:00:01.197Z,51.57
2018-01-24T18:02:27.425Z,51.57
2018-01-24T18:04:53.660Z,51.56
2018-01-24T18:07:19.913Z,51.57
2018-01-24T18:09:46.164Z,51.55
2018-01-24T18:12:12.377Z,51.54
2018-01-24T18:14:38.988Z,51.55
2018-01-24T18:17:05.301Z,51.57
2018-01-24T18:19:31.592Z,51.56
2018-01-24T18:21:57.854Z,51.58
2018-01-24T18:24:24.088Z,51.54
2018-01-24T18:26:50.319Z,51.56
2018-01-24T18:29:17.276Z,51.51
2018-01-24T18:31:43.579Z,51.49
2018-01-24T18:34:09.796Z,51.48
2018-01-24T18:36:36.105Z,51.48
2018-01-24T18:39:02.396Z,51.46
2018-01-24T18:41:28.589Z,51.39
2018-01-24T18:43:54.819Z,51.44
2018-01-24T18:46:21.053Z,51.44
2018-01-24T18:48:47.348Z,51.40
2018-01-24T18:51:13.554Z,51.38
2018-01-24T18:53:39.762Z,51.34
2018-01-24T18:56:06.012Z,51.31
2018-01-24T18:58:32.451Z,51.27
2018-01-24T19:00:58.890Z,51.23
2018-01-24T19:03:25.495Z,51.17
2018-01-24T19:05:51.729Z,51.17
2018-01-24T19:08:17.950Z,51.14
2018-01-24T19:10:44.208Z,51.09
2018-01-24T19:13:10.429Z,51.04
2018-01-24T19:15:36.630Z,51.04
2018-01-24T19:18:02.911Z,51.06
2018-01-24T19:20:29.179Z,51.49
2018-01-24T19:22:55.592Z,51.65
2018-01-24T19:25:21.791Z,51.77
2018-01-24T19:27:48.302Z,51.87
2018-01-24T19:30:14.582Z,51.96
2018-01-24T19:32:40.788Z,51.98
2018-01-24T19:35:07.000Z,52.04
2018-01-24T19:37:33.363Z,52.01
2018-01-24T19:39:59.735Z,52.01
2018-01-24T19:42:25.969Z,51.99
2018-01-24T19:44:52.260Z,51.99
2018-01-24T19:47:19.366Z,51.95
2018-01-24T19:49:45.559Z,51.71
2018-01-24T19:52:11.876Z,51.98
2018-01-24T19:54:38.166Z,51.96
2018-01-24T19:57:04.384Z,52.09
2018-01-24T19:59:30.628Z,52.19
2018-01-24T20:01:56.923Z,52.26
2018-01-24T20:04:23.165Z,52.23
2018-01-24T20:06:49.438Z,52.33
2018-01-24T20:09:15.916Z,52.42
2018-01-24T20:11:42.132Z,52.33
2018-01-24T20:14:08.409Z,52.29
2018-01-24T20:16:34.675Z,52.25
2018-01-24T20:19:00.983Z,52.29
2018-01-24T20:21:27.204Z,52.16
2018-01-24T20:23:53.402Z,52.18
2018-01-24T20:26:19.988Z,52.16
2018-01-24T20:28:46.189Z,52.11
2018-01-24T20:31:12.471Z,52.03
2018-01-24T20:33:38.876Z,52.02
2018-01-24T20:36:05.083Z,52.04
2018-01-24T20:38:31.294Z,52.17
2018-01-24T20:40:57.559Z,52.23
2018-01-24T20:43:23.784Z,52.25
2018-01-24T20:45:50.014Z,52.39
2018-01-24T20:48:16.261Z,52.38
2018-01-24T20:50:42.487Z,52.45
2018-01-24T20:53:08.778Z,52.42
2018-01-24T20:55:35.004Z,52.59
2018-01-24T20:58:01.604Z,52.71
2018-01-24T21:00:28.172Z,52.78
2018-01-24T21:02:54.403Z,52.77
2018-01-24T21:05:20.652Z,52.79
2018-01-24T21:07:47.145Z,52.94
2018-01-24T21:10:13.370Z,52.99
2018-01-24T21:12:39.587Z,53.08
2018-01-24T21:15:05.859Z,53.08
2018-01-24T21:17:32.149Z,53.18
2018-01-24T21:19:58.581Z,53.16
2018-01-24T21:22:24.814Z,53.21
2018-01-24T21:24:51.076Z,53.22
2018-01-24T21:27:17.343Z,53.23
2018-01-24T21:29:58.566Z,53.24
2018-01-24T21:32:36.758Z,53.30
2018-01-24T21:35:15.170Z,53.29
2018-01-24T21:37:41.384Z,53.33
2018-01-24T21:40:07.696Z,53.37
2018-01-24T21:42:34.340Z,53.39
2018-01-24T21:45:00.558Z,53.39
2018-01-24T21:47:26.783Z,53.49
2018-01-24T21:49:53.037Z,53.45
2018-01-24T21:52:19.254Z,53.41
2018-01-24T21:54:45.473Z,53.42
2018-01-24T21:57:11.695Z,53.47
2018-01-24T21:59:37.992Z,53.49
2018-01-24T22:02:04.285Z,53.50
2018-01-24T22:04:30.517Z,53.61
2018-01-24T22:06:56.768Z,53.64
2018-01-24T22:09:23.016Z,53.65
2018-01-24T22:11:49.225Z,53.70
2018-01-24T22:14:15.460Z,53.71
2018-01-24T22:16:42.201Z,53.66
2018-01-24T22:19:08.429Z,53.66
2018-01-24T22:21:34.686Z,53.71
2018-01-24T22:24:01.324Z,53.65
2018-01-24T22:26:27.836Z,53.63
2018-01-24T22:28:54.061Z,53.68
2018-01-24T22:31:20.402Z,53.64
2018-01-24T22:33:46.727Z,53.71
2018-01-24T22:36:12.957Z,53.82
2018-01-24T22:38:39.217Z,53.84
2018-01-24T22:41:05.469Z,53.89
2018-01-24T22:43:31.678Z,53.96
2018-01-24T22:45:58.326Z,53.94
2018-01-24T22:48:24.529Z,53.95
2018-01-24T22:50:50.757Z,53.94
2018-01-24T22:53:16.997Z,54.02
2018-01-24T22:55:43.273Z,54.11
2018-01-24T22:58:09.525Z,54.19
2018-01-24T23:00:35.792Z,54.20
2018-01-24T23:03:02.018Z,54.29
2018-01-24T23:05:28.609Z,54.34
2018-01-24T23:07:54.836Z,54.34
2018-01-24T23:10:21.037Z,54.47
2018-01-24T23:12:47.659Z,54.48
2018-01-24T23:15:13.861Z,54.56
2018-01-24T23:17:40.081Z,54.53
2018-01-24T23:20:06.424Z,54.58
2018-01-24T23:22:32.669Z,54.64
2018-01-24T23:24:58.873Z,54.74
2018-01-24T23:27:25.077Z,54.80
2018-01-24T23:29:51.316Z,54.97
2018-01-24T23:32:17.980Z,55.04
2018-01-24T23:34:44.298Z,55.12
2018-01-24T23:37:10.527Z,55.32
2018-01-24T23:39:37.499Z,54.98
2018-01-24T23:42:03.752Z,54.86
2018-01-24T23:44:29.958Z,54.91
2018-01-24T23:46:56.559Z,54.87
2018-01-24T23:49:22.777Z,54.80
2018-01-24T23:51:49.002Z,54.91
2018-01-24T23:54:15.269Z,54.88
2018-01-24T23:56:41.459Z,54.83
2018-01-24T23:59:07.751Z,54.87
